Time;durP1;ratioP1;P1;durP2;ratioP2;P2;SDS_P1;SDS_P2;PMS_P1;PMS_P2;Temp;Humidity;BMP_temperature;BMP_pressure;BME280_temperature;BME280_humidity;BME280_pressure;Samples;Min_cycle;Max_cycle;Signal;HPM_P1;HPM_P2
2022/12/07 00:01:17;;;;;;;16.60;6.97;;;3.20;99.90;;;;;;4988257;28;20042;-78
2022/12/07 00:03:44;;;;;;;16.58;6.55;;;3.10;99.90;;;;;;4977662;28;20058;-78
2022/12/07 00:06:13;;;;;;;14.77;6.65;;;3.10;99.90;;;;;;4985550;28;20443;-79
2022/12/07 00:08:39;;;;;;;15.52;6.43;;;3.10;99.90;;;;;;4988020;28;20118;-79
2022/12/07 00:11:13;;;;;;;17.02;6.28;;;3.10;99.90;;;;;;4986836;28;20101;-79
2022/12/07 00:13:40;;;;;;;19.95;7.13;;;3.00;99.90;;;;;;4988239;28;20065;-78
2022/12/07 00:16:12;;;;;;;19.10;6.25;;;3.00;99.90;;;;;;4987424;28;20100;-79
2022/12/07 00:18:38;;;;;;;14.30;4.93;;;3.00;99.90;;;;;;4987514;28;20070;-79
2022/12/07 00:21:06;;;;;;;14.82;5.72;;;3.00;99.90;;;;;;4986876;28;20132;-79
2022/12/07 00:23:33;;;;;;;7.38;4.65;;;3.00;99.90;;;;;;4988047;28;20082;-79
2022/12/07 00:26:18;;;;;;;19.23;5.47;;;3.00;99.90;;;;;;4987572;28;20129;-79
2022/12/07 00:28:49;;;;;;;15.05;4.97;;;3.00;99.90;;;;;;4982532;28;20092;-79
2022/12/07 00:31:16;;;;;;;14.20;4.85;;;3.10;99.90;;;;;;4986837;28;20050;-78
2022/12/07 00:33:43;;;;;;;12.40;5.10;;;3.10;99.90;;;;;;4988592;28;20077;-78
2022/12/07 00:36:11;;;;;;;9.93;4.28;;;3.10;99.90;;;;;;4987762;28;20352;-79
2022/12/07 00:38:38;;;;;;;13.68;5.28;;;3.20;99.90;;;;;;4987592;28;20046;-79
2022/12/07 00:41:06;;;;;;;15.50;4.00;;;3.20;99.90;;;;;;4987027;28;20050;-78
2022/12/07 00:43:32;;;;;;;16.65;4.55;;;3.10;99.90;;;;;;4985721;28;20054;-78
2022/12/07 00:45:58;;;;;;;14.75;4.28;;;3.10;99.90;;;;;;4986310;28;20073;-79
2022/12/07 00:48:24;;;;;;;19.80;4.28;;;3.10;99.90;;;;;;4986336;28;20393;-78
2022/12/07 00:50:50;;;;;;;7.53;3.10;;;3.10;99.90;;;;;;4987499;28;20046;-78
2022/12/07 00:53:16;;;;;;;6.68;2.22;;;3.10;99.90;;;;;;4987395;28;20054;-79
2022/12/07 00:55:43;;;;;;;14.57;4.95;;;3.10;99.90;;;;;;4970981;28;20046;-79
2022/12/07 00:58:09;;;;;;;11.20;4.18;;;3.10;99.90;;;;;;4986334;28;20133;-78
2022/12/07 01:00:40;;;;;;;7.47;3.60;;;3.10;99.90;;;;;;4985306;28;20133;-78
2022/12/07 01:03:07;;;;;;;12.05;4.82;;;3.10;99.90;;;;;;4987514;28;20871;-78
2022/12/07 01:05:32;;;;;;;7.32;3.08;;;3.00;99.90;;;;;;4984870;28;20120;-78
2022/12/07 01:07:58;;;;;;;11.18;3.40;;;3.00;99.90;;;;;;4990249;28;20502;-78
2022/12/07 01:10:26;;;;;;;11.93;4.40;;;3.00;99.90;;;;;;4989924;28;20038;-79
2022/12/07 01:12:52;;;;;;;10.18;4.15;;;3.00;99.90;;;;;;4989354;28;20494;-79
2022/12/07 01:15:18;;;;;;;15.80;3.78;;;2.90;99.90;;;;;;4989608;28;20124;-78
2022/12/07 01:17:44;;;;;;;8.25;3.17;;;2.90;99.90;;;;;;4988912;28;20098;-79
2022/12/07 01:20:10;;;;;;;23.60;4.45;;;2.90;99.90;;;;;;4991390;28;20049;-78
2022/12/07 01:22:40;;;;;;;11.50;4.10;;;3.00;99.90;;;;;;4984855;28;20042;-78
2022/12/07 01:25:07;;;;;;;13.85;4.53;;;2.90;99.90;;;;;;4984378;28;20053;-78
2022/12/07 01:27:35;;;;;;;14.50;4.88;;;2.90;99.90;;;;;;4989861;28;20056;-79
2022/12/07 01:30:02;;;;;;;17.95;5.80;;;2.90;99.90;;;;;;4989195;28;20119;-78
2022/12/07 01:32:29;;;;;;;17.25;4.13;;;3.00;99.90;;;;;;4981102;28;20034;-79
2022/12/07 01:34:54;;;;;;;14.00;4.10;;;2.90;99.90;;;;;;4988499;28;20071;-78
2022/12/07 01:37:22;;;;;;;12.52;3.88;;;2.90;99.90;;;;;;4984994;28;20045;-78
2022/12/07 01:39:49;;;;;;;12.98;5.18;;;2.90;99.90;;;;;;4989773;28;20148;-79
2022/12/07 01:42:15;;;;;;;13.40;4.38;;;2.90;99.90;;;;;;4987986;28;20065;-79
2022/12/07 01:45:18;;;;;;;13.88;3.28;;;2.90;99.90;;;;;;4989639;28;20139;-79
2022/12/07 01:47:50;;;;;;;16.15;4.53;;;2.90;99.90;;;;;;4989832;28;20054;-78
2022/12/07 01:50:16;;;;;;;13.40;4.53;;;2.90;99.90;;;;;;4989376;28;20065;-78
2022/12/07 01:52:44;;;;;;;16.80;3.88;;;2.90;99.90;;;;;;4987674;28;20050;-78
2022/12/07 01:55:13;;;;;;;11.52;2.90;;;2.90;99.90;;;;;;4989585;28;20053;-78
2022/12/07 01:57:49;;;;;;;13.60;2.60;;;2.90;99.90;;;;;;4989393;28;20085;-78
2022/12/07 02:00:16;;;;;;;24.65;4.28;;;2.90;99.90;;;;;;4996598;28;20376;-78
2022/12/07 02:02:55;;;;;;;13.13;3.67;;;2.90;99.90;;;;;;4981976;28;20045;-78
2022/12/07 02:05:21;;;;;;;9.93;3.65;;;2.90;99.90;;;;;;4979789;28;20126;-78
2022/12/07 02:07:48;;;;;;;8.38;3.00;;;2.90;99.90;;;;;;4990007;28;20406;-78
2022/12/07 02:10:29;;;;;;;16.05;4.15;;;2.90;99.90;;;;;;4984180;28;20491;-79
2022/12/07 02:13:14;;;;;;;9.65;2.10;;;2.80;99.90;;;;;;4988803;28;20049;-78
2022/12/07 02:16:17;;;;;;;14.52;3.97;;;2.70;99.90;;;;;;4988549;28;20541;-78
2022/12/07 02:18:46;;;;;;;12.00;4.40;;;2.80;99.90;;;;;;4989338;28;20068;-78
2022/12/07 02:21:15;;;;;;;;;;;2.80;99.90;;;;;;4989584;28;20045;-78
2022/12/07 02:23:50;;;;;;;10.27;2.75;;;2.80;99.90;;;;;;4989111;28;20337;-78
2022/12/07 02:26:44;;;;;;;10.77;3.15;;;2.80;99.90;;;;;;4984064;28;20076;-79
2022/12/07 02:29:22;;;;;;;11.15;2.78;;;2.90;99.90;;;;;;4988695;28;20669;-79
2022/12/07 02:32:15;;;;;;;11.57;2.83;;;2.90;99.90;;;;;;4983811;28;20507;-78
2022/12/07 02:34:49;;;;;;;11.70;3.00;;;2.90;99.90;;;;;;4984157;28;20419;-78
2022/12/07 02:37:49;;;;;;;14.30;3.40;;;3.00;99.90;;;;;;4990405;28;20084;-78
2022/12/07 02:40:31;;;;;;;11.27;2.70;;;3.00;99.90;;;;;;4991258;28;20421;-78
2022/12/07 02:43:23;;;;;;;15.02;2.58;;;3.00;99.90;;;;;;5003848;28;20077;-79
2022/12/07 02:45:51;;;;;;;11.05;3.60;;;3.00;99.90;;;;;;4992576;28;20103;-79
2022/12/07 02:48:20;;;;;;;7.47;2.45;;;2.90;99.90;;;;;;4992746;28;20046;-79
2022/12/07 02:50:51;;;;;;;12.43;2.55;;;2.90;99.90;;;;;;4992828;28;20045;-79
2022/12/07 02:53:41;;;;;;;7.88;2.35;;;2.90;99.90;;;;;;4979270;28;20072;-79
2022/12/07 02:56:27;;;;;;;12.13;2.45;;;2.90;99.90;;;;;;4992577;28;20779;-79
2022/12/07 02:59:11;;;;;;;6.68;2.60;;;2.80;99.90;;;;;;4992226;28;20058;-79
2022/12/07 03:02:01;;;;;;;7.20;2.05;;;2.80;99.90;;;;;;4992504;28;20092;-79
2022/12/07 03:04:52;;;;;;;1.73;0.65;;;2.70;99.90;;;;;;4983142;28;20058;-78
2022/12/07 03:07:34;;;;;;;13.52;3.13;;;2.70;99.90;;;;;;4986978;28;20436;-79
2022/12/07 03:10:09;;;;;;;5.85;2.03;;;2.70;99.90;;;;;;4976061;28;20054;-79
2022/12/07 03:12:45;;;;;;;10.00;2.65;;;2.70;99.90;;;;;;4989438;28;20500;-79
2022/12/07 03:15:18;;;;;;;4.45;1.15;;;2.70;99.90;;;;;;4988430;28;20081;-77
2022/12/07 03:17:46;;;;;;;11.48;3.30;;;2.70;99.90;;;;;;4989622;28;20466;-78
2022/12/07 03:20:15;;;;;;;15.93;2.53;;;2.70;99.90;;;;;;4990784;28;20423;-78
2022/12/07 03:22:43;;;;;;;12.02;2.63;;;2.80;99.90;;;;;;4986827;28;20104;-78
2022/12/07 03:25:13;;;;;;;7.32;1.75;;;2.80;99.90;;;;;;4992224;28;20364;-77
2022/12/07 03:27:50;;;;;;;11.20;2.17;;;2.90;99.90;;;;;;4981633;28;20054;-78
2022/12/07 03:30:19;;;;;;;15.98;2.80;;;2.90;99.90;;;;;;5005213;28;20057;-77
2022/12/07 03:32:59;;;;;;;12.45;3.13;;;3.00;99.90;;;;;;4992475;28;20510;-78
2022/12/07 03:35:37;;;;;;;12.82;2.30;;;3.00;99.90;;;;;;4988239;28;20510;-77
2022/12/07 03:38:42;;;;;;;13.32;2.92;;;3.00;99.90;;;;;;4992414;28;20049;-79
2022/12/07 03:41:30;;;;;;;10.02;2.65;;;3.00;99.90;;;;;;4980932;28;20447;-78
2022/12/07 03:43:57;;;;;;;;;;;3.00;99.90;;;;;;4992250;28;20054;-78
2022/12/07 03:46:41;;;;;;;11.60;3.03;;;3.00;99.90;;;;;;4989701;28;21215;-78
2022/12/07 03:49:27;;;;;;;16.50;3.17;;;3.00;99.90;;;;;;4992586;28;20061;-79
2022/12/07 03:52:26;;;;;;;12.32;2.67;;;3.00;99.90;;;;;;4986375;28;20058;-79
2022/12/07 03:55:00;;;;;;;7.65;2.38;;;3.00;99.90;;;;;;4960271;28;20478;-79
2022/12/07 03:57:29;;;;;;;9.50;2.45;;;3.00;99.90;;;;;;4990588;28;20052;-79
2022/12/07 03:59:56;;;;;;;13.43;3.00;;;3.00;99.90;;;;;;4992626;28;20042;-79
2022/12/07 04:02:24;;;;;;;11.50;2.37;;;3.10;99.90;;;;;;4992332;28;20152;-79
2022/12/07 04:04:51;;;;;;;12.05;2.60;;;3.10;99.90;;;;;;4987223;28;20054;-79
2022/12/07 04:07:17;;;;;;;10.85;3.35;;;3.10;99.90;;;;;;4991650;28;20962;-79
2022/12/07 04:09:43;;;;;;;14.02;1.77;;;3.10;99.90;;;;;;4975764;28;20045;-80
2022/12/07 04:12:09;;;;;;;10.48;2.33;;;3.20;99.90;;;;;;4991062;28;20050;-79
2022/12/07 04:14:35;;;;;;;17.42;3.28;;;3.10;99.90;;;;;;4992321;28;20310;-79
2022/12/07 04:17:00;;;;;;;7.82;2.25;;;3.20;99.90;;;;;;4992136;28;20057;-80
2022/12/07 04:19:30;;;;;;;10.93;3.28;;;3.20;99.90;;;;;;4992039;28;20392;-79
2022/12/07 04:21:57;;;;;;;5.75;2.08;;;3.20;99.90;;;;;;4990734;28;20864;-80
2022/12/07 04:24:23;;;;;;;8.95;2.60;;;3.20;99.90;;;;;;4991046;28;20628;-80
2022/12/07 04:26:49;;;;;;;7.18;2.72;;;3.10;99.90;;;;;;4979463;28;20060;-80
2022/12/07 04:29:17;;;;;;;11.77;3.67;;;3.10;99.90;;;;;;4990178;28;20125;-80
2022/12/07 04:31:43;;;;;;;3.50;1.52;;;3.10;99.90;;;;;;4991757;28;20581;-79
2022/12/07 04:34:09;;;;;;;6.05;1.30;;;3.10;99.90;;;;;;4991143;28;20104;-80
2022/12/07 04:36:35;;;;;;;9.18;2.45;;;3.10;99.90;;;;;;4988426;28;20608;-80
2022/12/07 04:39:04;;;;;;;14.35;3.40;;;3.10;99.90;;;;;;4990300;28;20050;-79
2022/12/07 04:41:30;;;;;;;2.85;0.90;;;3.00;99.90;;;;;;4997122;28;20046;-80
2022/12/07 04:43:57;;;;;;;16.35;2.70;;;3.00;99.90;;;;;;4990457;28;20041;-79
2022/12/07 04:46:24;;;;;;;13.60;2.42;;;3.00;99.90;;;;;;4991162;28;20049;-80
2022/12/07 04:48:51;;;;;;;9.15;2.00;;;2.90;99.90;;;;;;4991472;28;20060;-79
2022/12/07 04:51:20;;;;;;;4.10;1.80;;;2.90;99.90;;;;;;4986839;28;20138;-80
2022/12/07 04:53:46;;;;;;;6.88;2.05;;;2.90;99.90;;;;;;4990384;28;20065;-80
2022/12/07 04:56:12;;;;;;;7.60;2.35;;;2.80;99.90;;;;;;4984182;28;20576;-80
2022/12/07 04:58:38;;;;;;;7.05;2.42;;;2.80;99.90;;;;;;4991187;28;20100;-80
2022/12/07 05:01:04;;;;;;;12.75;2.80;;;2.70;99.90;;;;;;4989414;28;20042;-80
2022/12/07 05:03:29;;;;;;;7.50;2.30;;;2.70;99.90;;;;;;4985470;28;20047;-80
2022/12/07 05:05:56;;;;;;;10.40;2.45;;;2.70;99.90;;;;;;4986913;28;20427;-80
2022/12/07 05:08:22;;;;;;;5.03;1.90;;;2.60;99.90;;;;;;4975268;28;20459;-80
2022/12/07 05:10:49;;;;;;;10.00;2.55;;;2.60;99.90;;;;;;4987256;28;20042;-80
2022/12/07 05:13:15;;;;;;;10.07;2.60;;;2.60;99.90;;;;;;4984762;28;20047;-80
2022/12/07 05:15:44;;;;;;;4.82;1.88;;;2.50;99.90;;;;;;4986605;28;20051;-80
2022/12/07 05:18:12;;;;;;;11.70;2.95;;;2.50;99.90;;;;;;4987087;28;20446;-80
2022/12/07 05:20:39;;;;;;;8.48;2.30;;;2.50;99.90;;;;;;4986992;28;20042;-80
2022/12/07 05:23:05;;;;;;;16.33;2.75;;;2.50;99.90;;;;;;4986637;28;20046;-80
2022/12/07 05:25:31;;;;;;;21.85;2.95;;;2.50;99.90;;;;;;4986894;28;20100;-79
2022/12/07 05:27:57;;;;;;;12.77;3.08;;;2.50;99.90;;;;;;4986923;28;20050;-80
2022/12/07 05:30:26;;;;;;;13.38;2.67;;;2.50;99.90;;;;;;4983982;28;20188;-80
2022/12/07 05:32:53;;;;;;;17.75;3.35;;;2.50;99.90;;;;;;4979223;28;20055;-80
2022/12/07 05:35:19;;;;;;;11.98;2.20;;;2.50;99.90;;;;;;4981773;28;20050;-80
2022/12/07 05:37:45;;;;;;;7.25;2.58;;;2.50;99.90;;;;;;4986476;28;20057;-79
2022/12/07 05:40:12;;;;;;;9.55;2.55;;;2.60;99.90;;;;;;4982687;28;20069;-80
2022/12/07 05:42:38;;;;;;;10.20;2.33;;;2.50;99.90;;;;;;4985800;28;20049;-80
2022/12/07 05:45:05;;;;;;;7.57;2.60;;;2.60;99.90;;;;;;4986389;28;20046;-80
2022/12/07 05:47:30;;;;;;;4.47;2.15;;;2.50;99.90;;;;;;4987870;28;20074;-80
2022/12/07 05:49:56;;;;;;;14.77;3.20;;;2.50;99.90;;;;;;4982858;28;20078;-80
2022/12/07 05:52:22;;;;;;;5.53;1.75;;;2.50;99.90;;;;;;4986041;28;20046;-80
2022/12/07 05:54:47;;;;;;;13.65;3.22;;;2.50;99.90;;;;;;4986279;28;20057;-80
2022/12/07 05:57:13;;;;;;;6.43;2.45;;;2.40;99.90;;;;;;4987060;28;20046;-80
2022/12/07 05:59:39;;;;;;;10.52;1.80;;;2.40;99.90;;;;;;4977964;28;20038;-80
2022/12/07 06:02:08;;;;;;;9.38;2.60;;;2.40;99.90;;;;;;4987069;28;20042;-80
2022/12/07 06:04:36;;;;;;;7.38;2.28;;;2.30;99.90;;;;;;4986878;28;20065;-80
2022/12/07 06:07:02;;;;;;;;;;;2.30;99.90;;;;;;4985877;28;20050;-80
2022/12/07 06:09:28;;;;;;;11.93;2.83;;;2.20;99.90;;;;;;4991329;28;19922;-80
2022/12/07 06:14:42;;;;;;;6.50;2.35;;;2.20;99.90;;;;;;4986849;28;20845;-80
2022/12/07 06:17:08;;;;;;;10.15;2.28;;;2.10;99.90;;;;;;4989798;28;20082;-80
2022/12/07 06:19:35;;;;;;;8.30;1.85;;;2.10;99.90;;;;;;4989742;28;20050;-80
2022/12/07 06:22:01;;;;;;;4.22;2.13;;;2.00;99.90;;;;;;4986839;28;20161;-80
2022/12/07 06:24:26;;;;;;;4.22;2.08;;;2.00;99.90;;;;;;4984715;28;20062;-80
2022/12/07 06:26:52;;;;;;;8.68;1.98;;;2.00;99.90;;;;;;4987763;28;20046;-80
2022/12/07 06:29:18;;;;;;;11.52;2.88;;;2.00;99.90;;;;;;4989566;28;20039;-80
2022/12/07 06:31:44;;;;;;;17.60;6.57;;;2.00;99.90;;;;;;4989646;28;20073;-80
2022/12/07 06:34:13;;;;;;;16.83;6.00;;;2.00;99.90;;;;;;4989509;28;20491;-80
2022/12/07 06:36:39;;;;;;;15.77;5.88;;;2.00;99.90;;;;;;4989346;28;20096;-80
2022/12/07 06:39:07;;;;;;;16.70;5.22;;;1.90;99.90;;;;;;4989333;28;20038;-80
2022/12/07 06:41:33;;;;;;;18.97;6.90;;;2.00;99.90;;;;;;4985491;28;20121;-80
2022/12/07 06:43:58;;;;;;;14.95;8.77;;;1.90;99.90;;;;;;4973664;28;20129;-80
2022/12/07 06:46:24;;;;;;;17.23;8.00;;;1.90;99.90;;;;;;4989239;28;20587;-80
2022/12/07 06:48:51;;;;;;;16.27;6.97;;;1.90;99.90;;;;;;4988891;28;20054;-80
2022/12/07 06:51:17;;;;;;;22.00;8.02;;;1.90;99.90;;;;;;4989272;28;20042;-80
2022/12/07 06:53:42;;;;;;;16.35;5.38;;;1.90;99.90;;;;;;4988874;28;20113;-80
2022/12/07 06:56:08;;;;;;;14.50;3.03;;;1.90;99.90;;;;;;4988678;28;20038;-79
2022/12/07 06:58:33;;;;;;;13.38;3.70;;;1.90;99.90;;;;;;4984642;28;20502;-81
2022/12/07 07:00:59;;;;;;;10.52;3.78;;;2.00;99.90;;;;;;5002155;28;20037;-80
2022/12/07 07:03:25;;;;;;;19.83;3.15;;;2.00;99.90;;;;;;4989723;28;20046;-80
2022/12/07 07:05:55;;;;;;;12.45;2.33;;;2.00;99.90;;;;;;4990068;28;20058;-81
2022/12/07 07:08:20;;;;;;;12.65;2.95;;;2.10;99.90;;;;;;4986787;28;20081;-80
2022/12/07 07:10:46;;;;;;;24.75;3.75;;;2.20;99.90;;;;;;4990043;28;20050;-80
2022/12/07 07:13:12;;;;;;;10.07;2.72;;;2.20;99.90;;;;;;4987687;28;20041;-80
2022/12/07 07:15:38;;;;;;;12.07;3.00;;;2.20;99.90;;;;;;4989432;28;20104;-80
2022/12/07 07:18:04;;;;;;;9.88;3.00;;;2.30;99.90;;;;;;4990177;28;20411;-80
2022/12/07 07:20:30;;;;;;;11.75;4.18;;;2.30;99.90;;;;;;4989698;28;20039;-80
2022/12/07 07:22:56;;;;;;;16.92;2.97;;;2.30;99.90;;;;;;4989424;28;20050;-80
2022/12/07 07:25:22;;;;;;;13.80;2.60;;;2.30;99.90;;;;;;4973148;28;20050;-80
2022/12/07 07:27:47;;;;;;;9.43;3.05;;;2.30;99.90;;;;;;4989880;28;20085;-79
2022/12/07 07:30:13;;;;;;;4.40;2.17;;;2.30;99.90;;;;;;4987300;28;20069;-80
2022/12/07 07:32:39;;;;;;;11.50;2.85;;;2.30;99.90;;;;;;4989206;28;20054;-80
2022/12/07 07:35:06;;;;;;;4.65;0.90;;;2.30;99.90;;;;;;4988903;28;20054;-80
2022/12/07 07:37:32;;;;;;;9.98;3.10;;;2.20;99.90;;;;;;4990042;28;20046;-80
2022/12/07 07:39:57;;;;;;;10.45;2.88;;;2.20;99.90;;;;;;4989922;28;20721;-81
2022/12/07 07:42:23;;;;;;;15.45;3.28;;;2.20;99.90;;;;;;4989752;28;20050;-80
2022/12/07 07:44:51;;;;;;;14.13;2.85;;;2.20;99.90;;;;;;4986202;28;20101;-80
2022/12/07 07:47:16;;;;;;;18.57;3.80;;;2.20;99.90;;;;;;4981967;28;20574;-80
2022/12/07 07:49:42;;;;;;;5.80;2.25;;;2.20;99.90;;;;;;4988466;28;20046;-80
2022/12/07 07:52:07;;;;;;;19.63;3.63;;;2.20;99.90;;;;;;4988380;28;20038;-80
2022/12/07 07:54:33;;;;;;;5.93;1.42;;;2.20;99.90;;;;;;4988661;28;20046;-79
2022/12/07 07:57:00;;;;;;;12.57;4.03;;;2.30;99.90;;;;;;4988963;28;20050;-79
2022/12/07 07:59:25;;;;;;;12.50;3.45;;;2.40;99.90;;;;;;4987682;28;20037;-79
2022/12/07 08:01:51;;;;;;;11.23;2.83;;;2.40;99.90;;;;;;4989020;28;20038;-80
2022/12/07 08:04:17;;;;;;;14.25;3.17;;;2.50;99.90;;;;;;4981748;28;20184;-79
2022/12/07 08:06:42;;;;;;;10.60;2.78;;;2.50;99.90;;;;;;4988730;28;20049;-79
2022/12/07 08:09:09;;;;;;;15.57;3.25;;;2.60;99.90;;;;;;4988758;28;20085;-78
2022/12/07 08:11:36;;;;;;;11.77;2.85;;;2.60;99.90;;;;;;4989768;28;20088;-79
2022/12/07 08:14:02;;;;;;;19.98;3.50;;;2.60;99.90;;;;;;4988970;28;20125;-79
2022/12/07 08:16:28;;;;;;;1.75;1.20;;;2.60;99.90;;;;;;4989099;28;20043;-78
2022/12/07 08:18:53;;;;;;;12.20;2.65;;;2.60;99.90;;;;;;4988356;28;20046;-79
2022/12/07 08:21:19;;;;;;;15.15;2.75;;;2.60;99.90;;;;;;4986078;28;20510;-79
2022/12/07 08:23:45;;;;;;;14.05;2.80;;;2.60;99.90;;;;;;4986519;28;20129;-78
2022/12/07 08:26:13;;;;;;;10.13;3.03;;;2.60;99.90;;;;;;4983325;28;20129;-78
2022/12/07 08:28:39;;;;;;;6.50;1.00;;;2.60;99.90;;;;;;4998188;28;20127;-79
2022/12/07 08:31:08;;;;;;;9.10;2.53;;;2.50;99.90;;;;;;4993632;28;20077;-79
2022/12/07 08:33:36;;;;;;;4.53;1.45;;;2.50;99.90;;;;;;4994157;28;20074;-80
2022/12/07 08:36:07;;;;;;;10.20;2.80;;;2.50;99.90;;;;;;4973514;28;20104;-80
2022/12/07 08:38:35;;;;;;;22.83;2.90;;;2.50;99.90;;;;;;4988990;28;20046;-80
2022/12/07 08:41:01;;;;;;;3.58;1.08;;;2.40;99.90;;;;;;4986596;28;20603;-80
2022/12/07 08:43:27;;;;;;;7.55;2.55;;;2.40;99.90;;;;;;4989182;28;20042;-78
2022/12/07 08:46:22;;;;;;;8.55;3.22;;;2.40;99.90;;;;;;4981743;28;20177;-79
2022/12/07 08:48:56;;;;;;;9.13;2.92;;;2.40;99.90;;;;;;4984889;28;20109;-80
2022/12/07 08:51:23;;;;;;;10.70;2.70;;;2.40;99.90;;;;;;4976738;28;20447;-80
2022/12/07 08:53:50;;;;;;;11.02;3.47;;;2.40;99.90;;;;;;4987552;28;20038;-80
2022/12/07 08:56:16;;;;;;;8.43;3.37;;;2.50;99.90;;;;;;4987639;28;20069;-80
2022/12/07 08:58:43;;;;;;;12.82;3.88;;;2.50;99.90;;;;;;4983700;28;20341;-80
2022/12/07 09:01:09;;;;;;;13.27;4.25;;;2.50;99.90;;;;;;4971720;28;20045;-80
2022/12/07 09:03:35;;;;;;;9.00;3.65;;;2.60;99.90;;;;;;4987563;28;20082;-80
2022/12/07 09:06:00;;;;;;;14.38;3.53;;;2.60;99.90;;;;;;4987564;28;20138;-80
2022/12/07 09:08:34;;;;;;;12.40;3.90;;;2.70;99.90;;;;;;4987507;28;20054;-80
2022/12/07 09:11:00;;;;;;;11.55;3.90;;;2.70;99.90;;;;;;4987395;28;20362;-80
2022/12/07 09:13:26;;;;;;;16.83;3.97;;;2.80;99.90;;;;;;4986126;28;20543;-80
2022/12/07 09:15:51;;;;;;;10.40;3.88;;;2.80;99.90;;;;;;4984996;28;20124;-79
2022/12/07 09:18:17;;;;;;;14.38;4.22;;;2.80;99.90;;;;;;4969436;28;20084;-78
2022/12/07 09:20:42;;;;;;;18.55;4.97;;;2.90;99.90;;;;;;4983891;28;20042;-79
2022/12/07 09:23:08;;;;;;;17.50;6.10;;;2.90;99.90;;;;;;4985639;28;20064;-78
2022/12/07 09:25:35;;;;;;;16.50;4.32;;;2.90;99.90;;;;;;4986767;28;20038;-78
2022/12/07 09:28:01;;;;;;;11.48;3.55;;;2.90;99.90;;;;;;4986544;28;20058;-79
2022/12/07 09:30:27;;;;;;;16.35;3.40;;;3.00;99.90;;;;;;4986449;28;20042;-79
2022/12/07 09:32:54;;;;;;;18.63;4.07;;;3.00;99.90;;;;;;4981045;28;20050;-79
2022/12/07 09:35:20;;;;;;;12.25;3.88;;;3.10;99.90;;;;;;4980673;28;20096;-79
2022/12/07 09:37:46;;;;;;;10.00;3.55;;;3.10;99.90;;;;;;4977700;28;20050;-78
2022/12/07 09:40:13;;;;;;;14.98;3.60;;;3.20;99.90;;;;;;4986132;28;20050;-79
2022/12/07 09:42:44;;;;;;;11.05;2.70;;;3.20;99.90;;;;;;4985935;28;20043;-79
2022/12/07 09:45:18;;;;;;;13.80;3.53;;;3.20;99.90;;;;;;4986448;28;20439;-79
2022/12/07 09:47:45;;;;;;;22.13;3.95;;;3.30;99.90;;;;;;4987862;28;20046;-79
2022/12/07 09:50:20;;;;;;;22.30;4.30;;;3.30;99.90;;;;;;4986008;28;20129;-78
2022/12/07 09:52:47;;;;;;;14.65;3.65;;;3.40;99.90;;;;;;4984765;28;20050;-74
2022/12/07 09:55:16;;;;;;;22.02;4.53;;;3.40;99.90;;;;;;4978898;28;20500;-75
2022/12/07 09:57:43;;;;;;;16.80;3.58;;;3.50;99.90;;;;;;4981949;28;20100;-75
2022/12/07 10:00:17;;;;;;;9.70;3.75;;;3.50;99.90;;;;;;4984541;28;20099;-77
2022/12/07 10:02:55;;;;;;;6.20;3.20;;;3.60;99.90;;;;;;4969087;28;20126;-77
2022/12/07 10:05:26;;;;;;;8.20;3.58;;;3.70;99.90;;;;;;4985230;28;20058;-78
2022/12/07 10:07:52;;;;;;;9.88;3.90;;;3.70;99.90;;;;;;4990950;28;20049;-77
2022/12/07 10:10:26;;;;;;;12.98;4.28;;;3.80;99.90;;;;;;4991725;28;20037;-77
2022/12/07 10:13:19;;;;;;;18.65;4.43;;;3.90;99.90;;;;;;4985704;28;20096;-77
2022/12/07 10:15:53;;;;;;;20.67;4.75;;;3.90;99.90;;;;;;4986890;28;20085;-80
2022/12/07 10:18:37;;;;;;;18.90;4.18;;;4.10;99.90;;;;;;4972325;28;20061;-80
2022/12/07 10:21:16;;;;;;;16.55;4.25;;;4.00;99.90;;;;;;4989071;28;20488;-80
2022/12/07 10:24:02;;;;;;;;;;;4.00;99.90;;;;;;4988813;28;20046;-79
2022/12/07 10:26:38;;;;;;;9.70;3.85;;;4.00;99.90;;;;;;4977923;28;20040;-78
2022/12/07 10:29:20;;;;;;;13.07;4.13;;;4.00;99.90;;;;;;4983584;28;20046;-78
2022/12/07 10:32:01;;;;;;;11.23;3.25;;;4.00;99.90;;;;;;4987418;28;20053;-78
2022/12/07 10:34:30;;;;;;;11.80;3.75;;;4.00;99.90;;;;;;4996401;28;20097;-78
2022/12/07 10:37:17;;;;;;;16.55;3.95;;;4.00;99.90;;;;;;4995056;28;20053;-77
2022/12/07 10:39:55;;;;;;;19.20;3.83;;;4.10;99.90;;;;;;4989138;28;20050;-77
2022/12/07 10:42:26;;;;;;;6.87;3.43;;;4.10;99.90;;;;;;4990251;28;20061;-78
2022/12/07 10:45:17;;;;;;;14.35;3.10;;;4.10;99.90;;;;;;4989118;28;20077;-78
2022/12/07 10:48:13;;;;;;;13.25;2.88;;;4.10;99.90;;;;;;4987439;28;20081;-78
2022/12/07 10:50:56;;;;;;;11.38;2.65;;;4.10;99.90;;;;;;4985636;28;20062;-78
2022/12/07 10:53:38;;;;;;;10.65;2.83;;;4.10;99.90;;;;;;4989540;28;20054;-77
2022/12/07 10:56:35;;;;;;;6.32;2.53;;;4.10;99.90;;;;;;4989949;28;20478;-78
2022/12/07 10:59:03;;;;;;;12.18;2.80;;;4.10;99.90;;;;;;4996892;28;20066;-79
2022/12/07 11:01:32;;;;;;;9.32;2.03;;;4.10;99.90;;;;;;5001660;28;20074;-78
2022/12/07 11:04:01;;;;;;;13.65;2.80;;;4.10;99.90;;;;;;4988591;28;20058;-77
2022/12/07 11:06:35;;;;;;;14.27;2.90;;;4.20;99.90;;;;;;4991607;28;20133;-78
2022/12/07 11:09:23;;;;;;;14.43;3.17;;;4.30;99.90;;;;;;4991981;28;20167;-78
2022/12/07 11:12:03;;;;;;;8.52;2.25;;;4.30;99.90;;;;;;4999560;28;20073;-79
2022/12/07 11:14:45;;;;;;;10.07;2.72;;;4.40;99.90;;;;;;4992088;28;20091;-78
2022/12/07 11:17:43;;;;;;;3.88;2.15;;;4.40;99.90;;;;;;4992293;28;20616;-78
2022/12/07 11:20:19;;;;;;;7.95;2.72;;;4.50;99.90;;;;;;4991627;28;20046;-78
2022/12/07 11:22:58;;;;;;;10.02;3.10;;;4.50;99.90;;;;;;4985390;28;20508;-78
2022/12/07 11:25:41;;;;;;;18.75;4.18;;;4.50;99.90;;;;;;5004824;28;20037;-78
2022/12/07 11:28:41;;;;;;;13.75;3.10;;;4.50;99.90;;;;;;4992702;28;20050;-78
2022/12/07 11:31:25;;;;;;;11.75;3.55;;;4.60;99.90;;;;;;4985744;28;20045;-78
2022/12/07 11:34:32;;;;;;;21.15;6.25;;;4.60;99.90;;;;;;4990892;28;20058;-78
2022/12/07 11:37:02;;;;;;;15.55;3.95;;;4.70;99.90;;;;;;4964877;28;20058;-77
2022/12/07 11:39:38;;;;;;;13.45;4.00;;;4.70;99.90;;;;;;4994424;28;20045;-78
2022/12/07 11:42:12;;;;;;;19.58;3.75;;;4.70;99.90;;;;;;4992185;28;20052;-78
2022/12/07 11:44:44;;;;;;;18.33;4.55;;;4.70;99.90;;;;;;4974916;28;20084;-79
2022/12/07 11:47:31;;;;;;;12.30;3.42;;;4.80;99.90;;;;;;4991306;28;20152;-80
2022/12/07 11:50:16;;;;;;;12.27;3.88;;;4.80;99.90;;;;;;4991728;28;20069;-79
2022/12/07 11:52:51;;;;;;;13.75;3.80;;;4.80;99.90;;;;;;4990031;28;20168;-78
2022/12/07 11:55:41;;;;;;;15.65;3.42;;;4.70;99.90;;;;;;5005899;28;20042;-82
2022/12/07 11:58:38;;;;;;;12.63;3.53;;;4.60;99.90;;;;;;5007264;28;20078;-82
2022/12/07 12:01:13;;;;;;;6.20;2.28;;;4.60;99.90;;;;;;4987871;28;20045;-81
2022/12/07 12:03:44;;;;;;;10.35;2.25;;;4.50;99.90;;;;;;4987499;28;20089;-80
2022/12/07 12:06:09;;;;;;;5.03;1.60;;;4.50;99.90;;;;;;4990478;28;20516;-82
2022/12/07 12:09:12;;;;;;;7.07;1.83;;;4.50;99.90;;;;;;4991298;28;20085;-81
2022/12/07 12:12:14;;;;;;;11.50;2.58;;;4.50;99.90;;;;;;4990302;28;20049;-80
2022/12/07 12:14:40;;;;;;;7.88;2.00;;;4.50;99.90;;;;;;4990738;28;20073;-79
2022/12/07 12:17:37;;;;;;;4.85;1.90;;;4.50;99.90;;;;;;4990787;28;20680;-78
2022/12/07 12:20:06;;;;;;;6.93;1.77;;;4.60;99.90;;;;;;4990766;28;20518;-78
2022/12/07 12:22:39;;;;;;;7.47;1.80;;;4.50;99.90;;;;;;4990875;28;20045;-78
2022/12/07 12:25:20;;;;;;;9.15;1.70;;;4.60;99.90;;;;;;4989997;28;20100;-78
2022/12/07 12:27:49;;;;;;;11.45;3.05;;;4.70;99.90;;;;;;4990466;28;20080;-78
2022/12/07 12:30:30;;;;;;;7.60;2.85;;;4.70;99.90;;;;;;4986843;28;20407;-81
2022/12/07 12:33:04;;;;;;;7.35;1.60;;;4.80;99.90;;;;;;4990621;28;20041;-77
2022/12/07 12:35:31;;;;;;;3.78;1.92;;;4.80;99.90;;;;;;4990479;28;20057;-77
2022/12/07 12:38:19;;;;;;;8.10;2.53;;;4.90;99.90;;;;;;4990755;28;20046;-74
2022/12/07 12:40:46;;;;;;;;;;;5.00;99.90;;;;;;4998863;28;20050;-76
2022/12/07 12:43:42;;;;;;;11.60;3.25;;;5.00;99.90;;;;;;4989392;28;19932;-77
2022/12/07 12:46:33;;;;;;;14.50;3.72;;;5.00;99.90;;;;;;4989044;28;20057;-77
2022/12/07 12:49:17;;;;;;;9.48;3.35;;;5.10;99.90;;;;;;4990144;28;20881;-77
2022/12/07 12:52:40;;;;;;;9.88;3.90;;;5.20;99.90;;;;;;4990282;28;20054;-77
2022/12/07 12:55:08;;;;;;;12.32;3.97;;;5.20;99.90;;;;;;4982101;28;20057;-77
2022/12/07 12:57:35;;;;;;;;;;;5.20;99.90;;;;;;4990382;28;20069;-77
2022/12/07 13:00:16;;;;;;;20.15;4.18;;;5.20;99.90;;;;;;4989270;28;20358;-77
2022/12/07 13:02:51;;;;;;;11.23;3.47;;;5.20;99.90;;;;;;4990425;28;20740;-77
2022/12/07 13:05:20;;;;;;;9.95;3.28;;;5.20;99.90;;;;;;4989592;28;20053;-77
2022/12/07 13:07:55;;;;;;;17.17;3.55;;;5.20;99.90;;;;;;4988423;28;20534;-76
2022/12/07 13:10:23;;;;;;;17.15;3.75;;;5.20;99.90;;;;;;4989758;28;20408;-75
2022/12/07 13:13:19;;;;;;;11.15;4.35;;;5.30;99.90;;;;;;4990052;28;20049;-76
2022/12/07 13:15:48;;;;;;;14.25;4.43;;;5.30;99.90;;;;;;4990320;28;20045;-77
2022/12/07 13:18:24;;;;;;;;;;;5.30;99.90;;;;;;4991643;28;20050;-76
2022/12/07 13:20:52;;;;;;;11.85;4.45;;;5.20;99.90;;;;;;4992010;28;19929;-77